首页
METAR-TAF:

METAR-TAF

机场 :

昆明, 中华人民共和国

昆明长水国际机场

纬度: 25-01N, 经度: 102-41E, 海拔: 1892米

当前天气观测

该预报发布于22分钟前的03:00 UTC
风速17节,风向西南
温度 11°C
湿度 66%
气压 1021 hPa
能见度10公里或以上
散云层高于2000英尺

METAR: ZPPP 200300Z 22009MPS 9999 SCT020 11/05 Q1021 NOSIG

时间: 11:22 (03:22 UTC)

预报

该预报发布于8小时和10分钟前的19:12 UTC
预报有效从20日的 00点(UTC)到 20日的 24点(UTC)
风速10节,风向西南
能见度10公里或以上
散云层高于2600英尺
成为
从 20日的 03点(UTC)到 20日的 04点(UTC)
风速19节,风向西南,有时为31节阵风
成为
从 20日的 11点(UTC)到 20日的 12点(UTC)
风速10节,风向西南

TAF: ZPPP 191912Z 2000/2024 22005MPS 9999 SCT026 TX17/2008Z TN06/2023Z BECMG 2003/2004 22010G16MPS BECMG 2011/2012 22005MPS

超过4000个机场的气象观测和天气预报(METAR&TAF报告)。

可查询的气象台以黄色和红色小点在地图上表示。

将鼠标移到小点上方,可查看气象台名称。

然后点击查看天气观测和预报。

如需切换地图:点击带黑十字的绿色按钮放大地图;点击带横线的绿色按钮缩小地图;或者点击绿色箭头查看邻近地区的地图。


METAR-TAF: